Falls International Airport
KINL : now visible

Airfield :











YOU CAN JOIN US ON...

 
LOGIN :

Register | Disclaimer

   EN    FR    IT 

 









Legend :    VFR   Marginal VFR   IFR   Intensive IFR   Very Intensive IFR
Visi :
Ceiling :
>= 8 km
>= 3000ft
5 to 8 km
1000 to 3000 ft
1500m to 5 km
500 to 1000 ft
800 to 1500m
200 to 500 ft
< 800m
< 200 ft
Symbols :   Thunderstorms  Fog  Heavy snow  Heavy precipitations  Wind > 20 kt






- Airport Elevation : 1185 ft
- IATA code : INL


KINL - Falls International

CURRENT METAR :
  • 110255Z AUTO 22005KT 10SM CLR 15/08 A2980 RMK AO2 SLP091 T01500078 53007

EXPIRED METARs :
  • 110155Z AUTO 23005KT 10SM CLR 17/08 A2978 RMK AO2 SLP086 T01720078
  • 110055Z AUTO 26005KT 10SM CLR 21/08 A2978 RMK AO2 SLP085 T02110078

TAF KINL
Valid from the 11 at 00:00 until the 12 at 00:00 UTC


102341Z 1100/1124 26008G18KT P6SM SKC
FM110400 23005KT P6SM SKC
FM110600 23006KT P6SM FEW250 WS020/26042KT
FM111300 25007G16KT P6SM SKC
KZMP FIR / North America



MET'MAP, your aeronautical weather chart ! - Copyright ORBIFLY December 2007 - Disclaimer

ORBIFLY MET'MAP TEAM :

Programming & Development : Alexandra Zaïnal
Concept & original design : Baudouin d'Aumeries
Assistance for programming : Marc-Olivier Méhu
Technical & hardware support : Manuel Goepfert

Contact : metmap@orbifly.com




SOURCES & CREDITS :

   NOAA       Earth
Advisory